sensor_id;sensor_type;location;lat;lon;timestamp;P1;durP1;ratioP1;P2;durP2;ratioP2
3801;SDS011;1916;51.798;12.246;2022-11-20T00:00:39;13.43;;;9.23;;
3801;SDS011;1916;51.798;12.246;2022-11-20T00:02:41;16.37;;;8.80;;
3801;SDS011;1916;51.798;12.246;2022-11-20T00:04:43;13.57;;;9.60;;
3801;SDS011;1916;51.798;12.246;2022-11-20T00:06:46;14.73;;;9.83;;
3801;SDS011;1916;51.798;12.246;2022-11-20T00:08:48;14.77;;;10.00;;
3801;SDS011;1916;51.798;12.246;2022-11-20T00:10:50;14.50;;;8.77;;
3801;SDS011;1916;51.798;12.246;2022-11-20T00:12:52;12.60;;;9.13;;
3801;SDS011;1916;51.798;12.246;2022-11-20T00:14:55;14.87;;;10.10;;
3801;SDS011;1916;51.798;12.246;2022-11-20T00:16:57;14.83;;;10.33;;
3801;SDS011;1916;51.798;12.246;2022-11-20T00:18:59;11.67;;;8.70;;
3801;SDS011;1916;51.798;12.246;2022-11-20T00:21:05;14.33;;;9.40;;
3801;SDS011;1916;51.798;12.246;2022-11-20T00:23:09;14.60;;;10.27;;
3801;SDS011;1916;51.798;12.246;2022-11-20T00:25:11;13.33;;;8.30;;
3801;SDS011;1916;51.798;12.246;2022-11-20T00:27:14;13.47;;;9.60;;
3801;SDS011;1916;51.798;12.246;2022-11-20T00:29:16;14.50;;;9.50;;
3801;SDS011;1916;51.798;12.246;2022-11-20T00:31:18;13.83;;;8.93;;
3801;SDS011;1916;51.798;12.246;2022-11-20T00:33:21;13.50;;;9.20;;
3801;SDS011;1916;51.798;12.246;2022-11-20T00:35:23;13.17;;;9.23;;
3801;SDS011;1916;51.798;12.246;2022-11-20T00:37:26;16.70;;;9.70;;
3801;SDS011;1916;51.798;12.246;2022-11-20T00:39:29;14.50;;;9.50;;
3801;SDS011;1916;51.798;12.246;2022-11-20T00:41:31;13.10;;;10.07;;
3801;SDS011;1916;51.798;12.246;2022-11-20T00:43:33;16.37;;;10.27;;
3801;SDS011;1916;51.798;12.246;2022-11-20T00:45:36;16.63;;;10.37;;
3801;SDS011;1916;51.798;12.246;2022-11-20T00:47:38;13.43;;;10.27;;
3801;SDS011;1916;51.798;12.246;2022-11-20T00:49:40;14.00;;;10.10;;
3801;SDS011;1916;51.798;12.246;2022-11-20T00:51:42;11.23;;;9.23;;
3801;SDS011;1916;51.798;12.246;2022-11-20T00:53:44;17.63;;;9.77;;
3801;SDS011;1916;51.798;12.246;2022-11-20T00:55:54;14.87;;;9.80;;
3801;SDS011;1916;51.798;12.246;2022-11-20T00:58:03;20.30;;;11.30;;
3801;SDS011;1916;51.798;12.246;2022-11-20T01:00:05;15.70;;;9.43;;
3801;SDS011;1916;51.798;12.246;2022-11-20T01:02:08;14.40;;;10.47;;
3801;SDS011;1916;51.798;12.246;2022-11-20T01:04:10;13.43;;;10.00;;
3801;SDS011;1916;51.798;12.246;2022-11-20T01:06:14;17.90;;;10.73;;
3801;SDS011;1916;51.798;12.246;2022-11-20T01:08:18;18.07;;;10.57;;
3801;SDS011;1916;51.798;12.246;2022-11-20T01:10:20;15.63;;;10.57;;
3801;SDS011;1916;51.798;12.246;2022-11-20T01:12:22;20.53;;;11.67;;
3801;SDS011;1916;51.798;12.246;2022-11-20T01:14:24;14.87;;;10.30;;
3801;SDS011;1916;51.798;12.246;2022-11-20T01:16:28;16.37;;;10.37;;
3801;SDS011;1916;51.798;12.246;2022-11-20T01:18:32;16.43;;;9.83;;
3801;SDS011;1916;51.798;12.246;2022-11-20T01:20:36;21.10;;;12.57;;
3801;SDS011;1916;51.798;12.246;2022-11-20T01:22:38;17.03;;;11.33;;
3801;SDS011;1916;51.798;12.246;2022-11-20T01:24:40;19.57;;;11.93;;
3801;SDS011;1916;51.798;12.246;2022-11-20T01:26:43;18.57;;;11.97;;
3801;SDS011;1916;51.798;12.246;2022-11-20T01:28:46;20.27;;;11.67;;
3801;SDS011;1916;51.798;12.246;2022-11-20T01:30:49;20.57;;;12.20;;
3801;SDS011;1916;51.798;12.246;2022-11-20T01:32:51;20.53;;;11.30;;
3801;SDS011;1916;51.798;12.246;2022-11-20T01:34:53;17.10;;;10.87;;
3801;SDS011;1916;51.798;12.246;2022-11-20T01:36:55;17.90;;;11.27;;
3801;SDS011;1916;51.798;12.246;2022-11-20T01:38:59;17.10;;;11.90;;
3801;SDS011;1916;51.798;12.246;2022-11-20T01:41:03;16.07;;;11.90;;
3801;SDS011;1916;51.798;12.246;2022-11-20T01:43:14;21.80;;;11.73;;
3801;SDS011;1916;51.798;12.246;2022-11-20T01:47:46;23.40;;;11.50;;
3801;SDS011;1916;51.798;12.246;2022-11-20T01:49:50;15.97;;;10.70;;
3801;SDS011;1916;51.798;12.246;2022-11-20T01:52:01;18.40;;;10.93;;
3801;SDS011;1916;51.798;12.246;2022-11-20T01:54:07;22.40;;;12.03;;
3801;SDS011;1916;51.798;12.246;2022-11-20T01:56:12;17.30;;;11.13;;
3801;SDS011;1916;51.798;12.246;2022-11-20T01:58:15;18.13;;;11.20;;
3801;SDS011;1916;51.798;12.246;2022-11-20T02:00:19;21.00;;;12.30;;
3801;SDS011;1916;51.798;12.246;2022-11-20T02:02:22;16.17;;;11.03;;
3801;SDS011;1916;51.798;12.246;2022-11-20T02:04:24;16.80;;;10.60;;
3801;SDS011;1916;51.798;12.246;2022-11-20T02:06:28;15.40;;;10.87;;
3801;SDS011;1916;51.798;12.246;2022-11-20T02:08:32;24.67;;;13.73;;
3801;SDS011;1916;51.798;12.246;2022-11-20T02:10:35;21.20;;;11.90;;
3801;SDS011;1916;51.798;12.246;2022-11-20T02:12:37;18.63;;;11.50;;
3801;SDS011;1916;51.798;12.246;2022-11-20T02:14:58;15.10;;;10.47;;
3801;SDS011;1916;51.798;12.246;2022-11-20T02:17:00;16.93;;;11.30;;
3801;SDS011;1916;51.798;12.246;2022-11-20T02:19:04;16.53;;;10.50;;
3801;SDS011;1916;51.798;12.246;2022-11-20T02:23:36;17.57;;;11.87;;
3801;SDS011;1916;51.798;12.246;2022-11-20T02:25:41;18.10;;;11.50;;
3801;SDS011;1916;51.798;12.246;2022-11-20T02:27:43;19.20;;;10.50;;
3801;SDS011;1916;51.798;12.246;2022-11-20T02:30:00;17.00;;;10.13;;
3801;SDS011;1916;51.798;12.246;2022-11-20T02:32:04;20.93;;;11.40;;
3801;SDS011;1916;51.798;12.246;2022-11-20T02:34:06;18.40;;;12.33;;
3801;SDS011;1916;51.798;12.246;2022-11-20T02:36:09;19.60;;;11.10;;
3801;SDS011;1916;51.798;12.246;2022-11-20T02:38:13;19.10;;;11.87;;
3801;SDS011;1916;51.798;12.246;2022-11-20T02:40:16;17.53;;;11.27;;
3801;SDS011;1916;51.798;12.246;2022-11-20T02:42:18;18.30;;;12.00;;
3801;SDS011;1916;51.798;12.246;2022-11-20T02:44:20;18.20;;;12.23;;
3801;SDS011;1916;51.798;12.246;2022-11-20T02:46:22;16.73;;;11.13;;
3801;SDS011;1916;51.798;12.246;2022-11-20T02:48:24;19.17;;;10.77;;
3801;SDS011;1916;51.798;12.246;2022-11-20T02:50:29;18.80;;;11.50;;
3801;SDS011;1916;51.798;12.246;2022-11-20T02:52:32;20.33;;;11.10;;
3801;SDS011;1916;51.798;12.246;2022-11-20T02:54:34;17.83;;;11.93;;
3801;SDS011;1916;51.798;12.246;2022-11-20T02:56:37;16.83;;;10.35;;
3801;SDS011;1916;51.798;12.246;2022-11-20T02:58:40;15.50;;;10.77;;
3801;SDS011;1916;51.798;12.246;2022-11-20T03:00:42;17.47;;;10.90;;
3801;SDS011;1916;51.798;12.246;2022-11-20T03:02:44;23.90;;;13.23;;
3801;SDS011;1916;51.798;12.246;2022-11-20T03:04:47;21.73;;;12.10;;
3801;SDS011;1916;51.798;12.246;2022-11-20T03:06:49;22.10;;;12.93;;
3801;SDS011;1916;51.798;12.246;2022-11-20T03:08:51;16.10;;;10.27;;
3801;SDS011;1916;51.798;12.246;2022-11-20T03:10:53;17.53;;;11.87;;
3801;SDS011;1916;51.798;12.246;2022-11-20T03:12:55;21.53;;;12.80;;
3801;SDS011;1916;51.798;12.246;2022-11-20T03:14:58;22.97;;;12.73;;
3801;SDS011;1916;51.798;12.246;2022-11-20T03:17:00;19.10;;;11.70;;
3801;SDS011;1916;51.798;12.246;2022-11-20T03:19:02;21.83;;;12.33;;
3801;SDS011;1916;51.798;12.246;2022-11-20T03:21:05;21.10;;;13.70;;
3801;SDS011;1916;51.798;12.246;2022-11-20T03:23:07;20.63;;;12.00;;
3801;SDS011;1916;51.798;12.246;2022-11-20T03:25:09;23.73;;;12.43;;
3801;SDS011;1916;51.798;12.246;2022-11-20T03:27:11;17.50;;;11.90;;
3801;SDS011;1916;51.798;12.246;2022-11-20T03:29:13;18.90;;;11.60;;
3801;SDS011;1916;51.798;12.246;2022-11-20T03:31:16;19.33;;;12.20;;
3801;SDS011;1916;51.798;12.246;2022-11-20T03:33:20;22.45;;;12.73;;
3801;SDS011;1916;51.798;12.246;2022-11-20T03:35:22;21.17;;;12.30;;
3801;SDS011;1916;51.798;12.246;2022-11-20T03:37:25;23.80;;;14.75;;
3801;SDS011;1916;51.798;12.246;2022-11-20T03:39:27;18.75;;;11.68;;
3801;SDS011;1916;51.798;12.246;2022-11-20T03:41:30;21.70;;;12.30;;
3801;SDS011;1916;51.798;12.246;2022-11-20T03:43:32;21.13;;;12.23;;
3801;SDS011;1916;51.798;12.246;2022-11-20T03:45:35;17.70;;;11.80;;
3801;SDS011;1916;51.798;12.246;2022-11-20T03:47:37;17.50;;;11.40;;
3801;SDS011;1916;51.798;12.246;2022-11-20T03:49:39;18.63;;;12.73;;
3801;SDS011;1916;51.798;12.246;2022-11-20T03:51:41;27.25;;;14.95;;
3801;SDS011;1916;51.798;12.246;2022-11-20T03:53:44;17.27;;;11.95;;
3801;SDS011;1916;51.798;12.246;2022-11-20T03:55:50;18.60;;;12.30;;
3801;SDS011;1916;51.798;12.246;2022-11-20T03:57:53;19.35;;;12.07;;
3801;SDS011;1916;51.798;12.246;2022-11-20T03:59:55;23.85;;;14.48;;
3801;SDS011;1916;51.798;12.246;2022-11-20T04:01:57;21.47;;;13.20;;
3801;SDS011;1916;51.798;12.246;2022-11-20T04:03:59;23.55;;;14.07;;
3801;SDS011;1916;51.798;12.246;2022-11-20T04:06:03;23.77;;;13.30;;
3801;SDS011;1916;51.798;12.246;2022-11-20T04:08:09;25.08;;;12.75;;
3801;SDS011;1916;51.798;12.246;2022-11-20T04:10:11;20.75;;;13.15;;
3801;SDS011;1916;51.798;12.246;2022-11-20T04:12:13;23.38;;;13.68;;
3801;SDS011;1916;51.798;12.246;2022-11-20T04:14:16;22.10;;;13.50;;
3801;SDS011;1916;51.798;12.246;2022-11-20T04:16:18;25.00;;;12.40;;
3801;SDS011;1916;51.798;12.246;2022-11-20T04:18:21;34.43;;;13.70;;
3801;SDS011;1916;51.798;12.246;2022-11-20T04:20:23;25.65;;;14.93;;
3801;SDS011;1916;51.798;12.246;2022-11-20T04:22:25;19.57;;;13.47;;
3801;SDS011;1916;51.798;12.246;2022-11-20T04:24:28;18.95;;;12.52;;
3801;SDS011;1916;51.798;12.246;2022-11-20T04:26:30;20.50;;;11.00;;
3801;SDS011;1916;51.798;12.246;2022-11-20T04:28:32;20.27;;;12.83;;
3801;SDS011;1916;51.798;12.246;2022-11-20T04:30:35;22.92;;;12.85;;
3801;SDS011;1916;51.798;12.246;2022-11-20T04:32:37;24.40;;;14.13;;
3801;SDS011;1916;51.798;12.246;2022-11-20T04:34:39;23.23;;;12.70;;
3801;SDS011;1916;51.798;12.246;2022-11-20T04:36:41;25.83;;;13.77;;
3801;SDS011;1916;51.798;12.246;2022-11-20T04:38:44;24.75;;;13.68;;
3801;SDS011;1916;51.798;12.246;2022-11-20T04:40:46;21.77;;;13.13;;
3801;SDS011;1916;51.798;12.246;2022-11-20T04:42:48;23.40;;;12.73;;
3801;SDS011;1916;51.798;12.246;2022-11-20T04:44:50;26.93;;;14.33;;
3801;SDS011;1916;51.798;12.246;2022-11-20T04:46:52;23.85;;;12.30;;
3801;SDS011;1916;51.798;12.246;2022-11-20T04:48:55;22.25;;;13.65;;
3801;SDS011;1916;51.798;12.246;2022-11-20T04:50:57;26.00;;;13.97;;
3801;SDS011;1916;51.798;12.246;2022-11-20T04:52:59;26.80;;;14.20;;
3801;SDS011;1916;51.798;12.246;2022-11-20T04:55:01;21.40;;;13.40;;
3801;SDS011;1916;51.798;12.246;2022-11-20T04:57:04;20.77;;;12.17;;
3801;SDS011;1916;51.798;12.246;2022-11-20T04:59:12;25.17;;;13.57;;
3801;SDS011;1916;51.798;12.246;2022-11-20T05:01:18;23.17;;;13.60;;
3801;SDS011;1916;51.798;12.246;2022-11-20T05:03:22;23.23;;;13.50;;
3801;SDS011;1916;51.798;12.246;2022-11-20T05:05:24;25.35;;;14.45;;
3801;SDS011;1916;51.798;12.246;2022-11-20T05:07:26;24.20;;;15.50;;
3801;SDS011;1916;51.798;12.246;2022-11-20T05:09:29;24.40;;;13.60;;
3801;SDS011;1916;51.798;12.246;2022-11-20T05:11:31;25.77;;;13.30;;
3801;SDS011;1916;51.798;12.246;2022-11-20T05:13:33;22.67;;;13.88;;
3801;SDS011;1916;51.798;12.246;2022-11-20T05:15:36;22.27;;;13.43;;
3801;SDS011;1916;51.798;12.246;2022-11-20T05:17:38;22.60;;;13.60;;
3801;SDS011;1916;51.798;12.246;2022-11-20T05:19:40;27.23;;;13.70;;
3801;SDS011;1916;51.798;12.246;2022-11-20T05:21:42;26.70;;;15.10;;
3801;SDS011;1916;51.798;12.246;2022-11-20T05:23:45;26.47;;;14.90;;
3801;SDS011;1916;51.798;12.246;2022-11-20T05:25:47;22.45;;;12.32;;
3801;SDS011;1916;51.798;12.246;2022-11-20T05:27:53;28.80;;;15.85;;
3801;SDS011;1916;51.798;12.246;2022-11-20T05:29:55;25.10;;;14.43;;
3801;SDS011;1916;51.798;12.246;2022-11-20T05:31:57;29.70;;;14.10;;
3801;SDS011;1916;51.798;12.246;2022-11-20T05:33:59;25.40;;;13.40;;
3801;SDS011;1916;51.798;12.246;2022-11-20T05:36:02;28.00;;;15.20;;
3801;SDS011;1916;51.798;12.246;2022-11-20T05:38:05;24.70;;;13.13;;
3801;SDS011;1916;51.798;12.246;2022-11-20T05:40:08;24.95;;;14.05;;
3801;SDS011;1916;51.798;12.246;2022-11-20T05:42:10;31.02;;;14.70;;
3801;SDS011;1916;51.798;12.246;2022-11-20T05:44:31;26.93;;;14.50;;
3801;SDS011;1916;51.798;12.246;2022-11-20T05:46:33;26.13;;;13.52;;
3801;SDS011;1916;51.798;12.246;2022-11-20T05:48:36;24.08;;;12.68;;
3801;SDS011;1916;51.798;12.246;2022-11-20T05:50:38;29.83;;;15.10;;
3801;SDS011;1916;51.798;12.246;2022-11-20T05:52:41;21.75;;;14.20;;
3801;SDS011;1916;51.798;12.246;2022-11-20T05:54:43;26.33;;;15.07;;
3801;SDS011;1916;51.798;12.246;2022-11-20T05:56:45;33.67;;;14.85;;
3801;SDS011;1916;51.798;12.246;2022-11-20T05:58:48;25.15;;;13.30;;
3801;SDS011;1916;51.798;12.246;2022-11-20T06:00:50;22.48;;;14.65;;
3801;SDS011;1916;51.798;12.246;2022-11-20T06:02:52;26.20;;;14.20;;
3801;SDS011;1916;51.798;12.246;2022-11-20T06:04:55;24.63;;;13.77;;
3801;SDS011;1916;51.798;12.246;2022-11-20T06:06:57;25.67;;;14.25;;
3801;SDS011;1916;51.798;12.246;2022-11-20T06:08:59;25.80;;;14.50;;
3801;SDS011;1916;51.798;12.246;2022-11-20T06:11:05;26.47;;;15.43;;
3801;SDS011;1916;51.798;12.246;2022-11-20T06:13:08;27.53;;;14.67;;
3801;SDS011;1916;51.798;12.246;2022-11-20T06:15:10;30.47;;;15.77;;
3801;SDS011;1916;51.798;12.246;2022-11-20T06:17:13;30.02;;;16.38;;
3801;SDS011;1916;51.798;12.246;2022-11-20T06:19:15;26.90;;;15.67;;
3801;SDS011;1916;51.798;12.246;2022-11-20T06:21:18;33.40;;;17.60;;
3801;SDS011;1916;51.798;12.246;2022-11-20T06:23:21;28.90;;;15.80;;
3801;SDS011;1916;51.798;12.246;2022-11-20T06:25:23;32.57;;;16.67;;
3801;SDS011;1916;51.798;12.246;2022-11-20T06:27:26;30.33;;;16.03;;
3801;SDS011;1916;51.798;12.246;2022-11-20T06:29:28;28.60;;;16.47;;
3801;SDS011;1916;51.798;12.246;2022-11-20T06:31:34;29.80;;;16.60;;
3801;SDS011;1916;51.798;12.246;2022-11-20T06:33:40;34.50;;;16.93;;
3801;SDS011;1916;51.798;12.246;2022-11-20T06:35:43;31.20;;;16.47;;
3801;SDS011;1916;51.798;12.246;2022-11-20T06:37:45;30.20;;;16.33;;
3801;SDS011;1916;51.798;12.246;2022-11-20T06:39:47;30.95;;;16.08;;
3801;SDS011;1916;51.798;12.246;2022-11-20T06:41:50;32.23;;;15.27;;
3801;SDS011;1916;51.798;12.246;2022-11-20T06:43:59;32.43;;;16.43;;
3801;SDS011;1916;51.798;12.246;2022-11-20T06:46:01;35.33;;;16.90;;
3801;SDS011;1916;51.798;12.246;2022-11-20T06:48:04;35.03;;;17.90;;
3801;SDS011;1916;51.798;12.246;2022-11-20T06:50:06;31.93;;;17.40;;
3801;SDS011;1916;51.798;12.246;2022-11-20T06:52:08;30.53;;;16.17;;
3801;SDS011;1916;51.798;12.246;2022-11-20T06:54:11;34.97;;;18.73;;
3801;SDS011;1916;51.798;12.246;2022-11-20T06:56:13;36.07;;;18.00;;
3801;SDS011;1916;51.798;12.246;2022-11-20T06:58:15;34.00;;;18.70;;
3801;SDS011;1916;51.798;12.246;2022-11-20T07:00:17;42.27;;;20.80;;
3801;SDS011;1916;51.798;12.246;2022-11-20T07:02:20;40.73;;;18.60;;
3801;SDS011;1916;51.798;12.246;2022-11-20T07:04:22;28.90;;;16.37;;
3801;SDS011;1916;51.798;12.246;2022-11-20T07:06:24;33.23;;;18.10;;
3801;SDS011;1916;51.798;12.246;2022-11-20T07:08:26;37.07;;;18.83;;
3801;SDS011;1916;51.798;12.246;2022-11-20T07:10:28;39.70;;;19.60;;
3801;SDS011;1916;51.798;12.246;2022-11-20T07:12:31;39.37;;;20.33;;
3801;SDS011;1916;51.798;12.246;2022-11-20T07:14:33;35.27;;;16.93;;
3801;SDS011;1916;51.798;12.246;2022-11-20T07:16:35;35.47;;;18.33;;
3801;SDS011;1916;51.798;12.246;2022-11-20T07:18:37;34.13;;;18.83;;
3801;SDS011;1916;51.798;12.246;2022-11-20T07:20:39;37.13;;;19.53;;
3801;SDS011;1916;51.798;12.246;2022-11-20T07:22:42;33.90;;;19.30;;
3801;SDS011;1916;51.798;12.246;2022-11-20T07:24:44;33.37;;;16.50;;
3801;SDS011;1916;51.798;12.246;2022-11-20T07:26:47;32.97;;;18.23;;
3801;SDS011;1916;51.798;12.246;2022-11-20T07:28:50;35.20;;;20.20;;
3801;SDS011;1916;51.798;12.246;2022-11-20T07:30:53;32.50;;;17.70;;
3801;SDS011;1916;51.798;12.246;2022-11-20T07:32:55;37.20;;;19.40;;
3801;SDS011;1916;51.798;12.246;2022-11-20T07:34:58;35.10;;;19.67;;
3801;SDS011;1916;51.798;12.246;2022-11-20T07:37:00;39.60;;;20.40;;
3801;SDS011;1916;51.798;12.246;2022-11-20T07:39:09;34.10;;;19.57;;
3801;SDS011;1916;51.798;12.246;2022-11-20T07:41:11;31.50;;;18.30;;
3801;SDS011;1916;51.798;12.246;2022-11-20T07:43:13;28.70;;;17.10;;
3801;SDS011;1916;51.798;12.246;2022-11-20T07:45:20;32.27;;;17.43;;
3801;SDS011;1916;51.798;12.246;2022-11-20T07:47:23;27.57;;;15.83;;
3801;SDS011;1916;51.798;12.246;2022-11-20T07:49:25;26.93;;;15.57;;
3801;SDS011;1916;51.798;12.246;2022-11-20T07:51:27;35.47;;;19.03;;
3801;SDS011;1916;51.798;12.246;2022-11-20T07:53:31;30.00;;;16.70;;
3801;SDS011;1916;51.798;12.246;2022-11-20T07:55:33;24.50;;;15.77;;
3801;SDS011;1916;51.798;12.246;2022-11-20T07:57:35;31.37;;;17.50;;
3801;SDS011;1916;51.798;12.246;2022-11-20T07:59:37;27.47;;;16.63;;
3801;SDS011;1916;51.798;12.246;2022-11-20T08:01:40;24.57;;;16.17;;
3801;SDS011;1916;51.798;12.246;2022-11-20T08:03:43;24.73;;;16.90;;
3801;SDS011;1916;51.798;12.246;2022-11-20T08:05:45;26.07;;;16.40;;
3801;SDS011;1916;51.798;12.246;2022-11-20T08:07:47;27.37;;;16.60;;
3801;SDS011;1916;51.798;12.246;2022-11-20T08:09:50;25.13;;;15.30;;
3801;SDS011;1916;51.798;12.246;2022-11-20T08:11:52;28.00;;;14.73;;
3801;SDS011;1916;51.798;12.246;2022-11-20T08:14:12;23.63;;;15.43;;
3801;SDS011;1916;51.798;12.246;2022-11-20T08:16:15;28.60;;;16.47;;
3801;SDS011;1916;51.798;12.246;2022-11-20T08:18:17;24.03;;;15.30;;
3801;SDS011;1916;51.798;12.246;2022-11-20T08:20:35;23.57;;;14.97;;
3801;SDS011;1916;51.798;12.246;2022-11-20T08:22:37;27.67;;;17.97;;
3801;SDS011;1916;51.798;12.246;2022-11-20T08:24:39;25.50;;;15.70;;
3801;SDS011;1916;51.798;12.246;2022-11-20T08:26:41;24.90;;;15.40;;
3801;SDS011;1916;51.798;12.246;2022-11-20T08:28:43;23.30;;;15.03;;
3801;SDS011;1916;51.798;12.246;2022-11-20T08:30:46;21.27;;;14.20;;
3801;SDS011;1916;51.798;12.246;2022-11-20T08:32:48;23.87;;;15.27;;
3801;SDS011;1916;51.798;12.246;2022-11-20T08:34:50;24.73;;;15.80;;
3801;SDS011;1916;51.798;12.246;2022-11-20T08:36:52;21.70;;;15.67;;
3801;SDS011;1916;51.798;12.246;2022-11-20T08:38:55;21.10;;;13.53;;
3801;SDS011;1916;51.798;12.246;2022-11-20T08:40:58;26.10;;;15.37;;
3801;SDS011;1916;51.798;12.246;2022-11-20T08:43:19;24.50;;;15.10;;
3801;SDS011;1916;51.798;12.246;2022-11-20T08:45:21;23.20;;;15.60;;
3801;SDS011;1916;51.798;12.246;2022-11-20T08:47:24;24.83;;;14.77;;
3801;SDS011;1916;51.798;12.246;2022-11-20T08:49:26;23.60;;;13.83;;
3801;SDS011;1916;51.798;12.246;2022-11-20T08:51:28;22.97;;;15.60;;
3801;SDS011;1916;51.798;12.246;2022-11-20T08:53:30;28.70;;;14.00;;
3801;SDS011;1916;51.798;12.246;2022-11-20T08:55:33;23.17;;;14.77;;
3801;SDS011;1916;51.798;12.246;2022-11-20T08:57:37;23.70;;;14.70;;
3801;SDS011;1916;51.798;12.246;2022-11-20T08:59:40;20.97;;;14.57;;
3801;SDS011;1916;51.798;12.246;2022-11-20T09:02:02;21.43;;;14.53;;
3801;SDS011;1916;51.798;12.246;2022-11-20T09:04:04;24.07;;;14.53;;
3801;SDS011;1916;51.798;12.246;2022-11-20T09:06:07;21.83;;;15.20;;
3801;SDS011;1916;51.798;12.246;2022-11-20T09:08:09;25.20;;;14.90;;
3801;SDS011;1916;51.798;12.246;2022-11-20T09:10:11;21.70;;;14.60;;
3801;SDS011;1916;51.798;12.246;2022-11-20T09:12:29;22.20;;;14.40;;
3801;SDS011;1916;51.798;12.246;2022-11-20T09:14:31;25.43;;;15.60;;
3801;SDS011;1916;51.798;12.246;2022-11-20T09:16:34;18.20;;;13.50;;
3801;SDS011;1916;51.798;12.246;2022-11-20T09:18:36;21.90;;;13.93;;
3801;SDS011;1916;51.798;12.246;2022-11-20T09:20:39;19.97;;;14.10;;
3801;SDS011;1916;51.798;12.246;2022-11-20T09:22:41;21.53;;;14.03;;
3801;SDS011;1916;51.798;12.246;2022-11-20T09:24:43;21.73;;;14.03;;
3801;SDS011;1916;51.798;12.246;2022-11-20T09:26:45;21.00;;;14.33;;
3801;SDS011;1916;51.798;12.246;2022-11-20T09:28:47;19.60;;;13.70;;
3801;SDS011;1916;51.798;12.246;2022-11-20T09:30:54;24.40;;;15.40;;
3801;SDS011;1916;51.798;12.246;2022-11-20T09:32:57;18.57;;;13.63;;
3801;SDS011;1916;51.798;12.246;2022-11-20T09:34:59;17.30;;;13.07;;
3801;SDS011;1916;51.798;12.246;2022-11-20T09:37:06;16.60;;;12.10;;
3801;SDS011;1916;51.798;12.246;2022-11-20T09:39:08;17.87;;;13.10;;
3801;SDS011;1916;51.798;12.246;2022-11-20T09:41:33;19.20;;;13.23;;
3801;SDS011;1916;51.798;12.246;2022-11-20T09:51:24;18.80;;;14.10;;
3801;SDS011;1916;51.798;12.246;2022-11-20T09:56:24;19.73;;;10.80;;
3801;SDS011;1916;51.798;12.246;2022-11-20T09:58:29;15.43;;;10.20;;
3801;SDS011;1916;51.798;12.246;2022-11-20T10:00:36;16.07;;;12.17;;
3801;SDS011;1916;51.798;12.246;2022-11-20T10:02:43;19.73;;;14.10;;
3801;SDS011;1916;51.798;12.246;2022-11-20T10:04:52;15.67;;;11.80;;
3801;SDS011;1916;51.798;12.246;2022-11-20T10:07:04;16.57;;;12.20;;
3801;SDS011;1916;51.798;12.246;2022-11-20T10:09:37;17.10;;;11.27;;
3801;SDS011;1916;51.798;12.246;2022-11-20T10:11:48;14.57;;;11.37;;
3801;SDS011;1916;51.798;12.246;2022-11-20T10:30:37;15.17;;;11.47;;
3801;SDS011;1916;51.798;12.246;2022-11-20T10:35:26;14.83;;;11.40;;
3801;SDS011;1916;51.798;12.246;2022-11-20T10:37:30;14.77;;;10.70;;
3801;SDS011;1916;51.798;12.246;2022-11-20T10:41:58;15.00;;;11.30;;
3801;SDS011;1916;51.798;12.246;2022-11-20T10:44:05;15.20;;;11.00;;
3801;SDS011;1916;51.798;12.246;2022-11-20T10:46:17;15.80;;;11.77;;
3801;SDS011;1916;51.798;12.246;2022-11-20T10:48:21;15.67;;;11.60;;
3801;SDS011;1916;51.798;12.246;2022-11-20T10:50:25;16.87;;;12.27;;
3801;SDS011;1916;51.798;12.246;2022-11-20T10:52:41;14.93;;;11.20;;
3801;SDS011;1916;51.798;12.246;2022-11-20T10:57:25;15.23;;;11.67;;
3801;SDS011;1916;51.798;12.246;2022-11-20T11:01:51;17.40;;;12.30;;
3801;SDS011;1916;51.798;12.246;2022-11-20T11:03:54;15.97;;;11.80;;
3801;SDS011;1916;51.798;12.246;2022-11-20T11:08:20;16.10;;;11.33;;
3801;SDS011;1916;51.798;12.246;2022-11-20T11:10:28;18.63;;;12.67;;
3801;SDS011;1916;51.798;12.246;2022-11-20T11:12:37;15.63;;;12.13;;
3801;SDS011;1916;51.798;12.246;2022-11-20T11:14:46;17.13;;;12.53;;
3801;SDS011;1916;51.798;12.246;2022-11-20T11:16:54;19.30;;;12.10;;
3801;SDS011;1916;51.798;12.246;2022-11-20T11:19:04;17.63;;;12.60;;
3801;SDS011;1916;51.798;12.246;2022-11-20T11:21:08;19.57;;;12.57;;
3801;SDS011;1916;51.798;12.246;2022-11-20T11:23:22;16.77;;;12.57;;
3801;SDS011;1916;51.798;12.246;2022-11-20T11:25:40;15.90;;;11.87;;
3801;SDS011;1916;51.798;12.246;2022-11-20T11:27:45;16.83;;;11.40;;
3801;SDS011;1916;51.798;12.246;2022-11-20T11:30:00;17.47;;;13.70;;
3801;SDS011;1916;51.798;12.246;2022-11-20T11:32:05;18.57;;;12.97;;
3801;SDS011;1916;51.798;12.246;2022-11-20T11:34:14;18.63;;;13.63;;
3801;SDS011;1916;51.798;12.246;2022-11-20T11:36:18;19.23;;;13.93;;
3801;SDS011;1916;51.798;12.246;2022-11-20T11:38:27;19.70;;;13.37;;
3801;SDS011;1916;51.798;12.246;2022-11-20T11:40:33;19.90;;;14.00;;
3801;SDS011;1916;51.798;12.246;2022-11-20T11:42:41;17.90;;;11.37;;
3801;SDS011;1916;51.798;12.246;2022-11-20T11:44:45;18.63;;;11.97;;
3801;SDS011;1916;51.798;12.246;2022-11-20T11:47:11;16.17;;;11.43;;
3801;SDS011;1916;51.798;12.246;2022-11-20T11:49:26;18.50;;;10.70;;
3801;SDS011;1916;51.798;12.246;2022-11-20T11:51:31;16.30;;;11.27;;
3801;SDS011;1916;51.798;12.246;2022-11-20T11:53:34;18.60;;;11.63;;
3801;SDS011;1916;51.798;12.246;2022-11-20T11:55:43;17.07;;;11.57;;
3801;SDS011;1916;51.798;12.246;2022-11-20T12:00:14;20.40;;;13.40;;
3801;SDS011;1916;51.798;12.246;2022-11-20T12:02:24;16.30;;;10.80;;
3801;SDS011;1916;51.798;12.246;2022-11-20T12:04:40;18.20;;;10.70;;
3801;SDS011;1916;51.798;12.246;2022-11-20T12:06:47;17.10;;;11.00;;
3801;SDS011;1916;51.798;12.246;2022-11-20T12:08:59;18.07;;;10.37;;
3801;SDS011;1916;51.798;12.246;2022-11-20T12:15:34;17.90;;;11.27;;
3801;SDS011;1916;51.798;12.246;2022-11-20T12:17:36;17.60;;;11.33;;
3801;SDS011;1916;51.798;12.246;2022-11-20T12:19:38;19.33;;;12.73;;
3801;SDS011;1916;51.798;12.246;2022-11-20T12:22:44;16.23;;;10.37;;
3801;SDS011;1916;51.798;12.246;2022-11-20T12:33:54;17.80;;;11.40;;
3801;SDS011;1916;51.798;12.246;2022-11-20T12:36:08;16.27;;;10.80;;
3801;SDS011;1916;51.798;12.246;2022-11-20T12:42:31;16.47;;;11.50;;
3801;SDS011;1916;51.798;12.246;2022-11-20T12:52:35;15.10;;;9.03;;
3801;SDS011;1916;51.798;12.246;2022-11-20T13:06:45;18.60;;;11.63;;
3801;SDS011;1916;51.798;12.246;2022-11-20T13:08:56;18.03;;;11.17;;
3801;SDS011;1916;51.798;12.246;2022-11-20T13:15:39;17.80;;;11.60;;
3801;SDS011;1916;51.798;12.246;2022-11-20T13:18:04;21.70;;;12.67;;
3801;SDS011;1916;51.798;12.246;2022-11-20T13:20:12;18.00;;;11.10;;
3801;SDS011;1916;51.798;12.246;2022-11-20T13:22:23;17.83;;;10.50;;
3801;SDS011;1916;51.798;12.246;2022-11-20T13:24:28;16.07;;;10.93;;
3801;SDS011;1916;51.798;12.246;2022-11-20T13:26:32;17.87;;;10.93;;
3801;SDS011;1916;51.798;12.246;2022-11-20T13:28:34;19.00;;;12.70;;
3801;SDS011;1916;51.798;12.246;2022-11-20T13:30:48;18.63;;;11.70;;
3801;SDS011;1916;51.798;12.246;2022-11-20T13:32:55;18.80;;;11.50;;
3801;SDS011;1916;51.798;12.246;2022-11-20T13:35:01;16.03;;;10.93;;
3801;SDS011;1916;51.798;12.246;2022-11-20T13:37:23;22.63;;;12.30;;
3801;SDS011;1916;51.798;12.246;2022-11-20T13:39:30;15.13;;;10.10;;
3801;SDS011;1916;51.798;12.246;2022-11-20T13:41:35;18.70;;;11.00;;
3801;SDS011;1916;51.798;12.246;2022-11-20T13:43:40;15.57;;;10.63;;
3801;SDS011;1916;51.798;12.246;2022-11-20T13:45:53;18.77;;;11.13;;
3801;SDS011;1916;51.798;12.246;2022-11-20T13:47:57;16.47;;;11.27;;
3801;SDS011;1916;51.798;12.246;2022-11-20T13:50:02;14.40;;;9.63;;